EWG4339 EDDL-LOWS
Flight info
| Callsign | EWG4339 |
|---|---|
| Flight time | 1h 3m |
| Altitude | 35000 |
| Route | DODEN1T/23L DODEN Y853 BOMBI DCT ESATI DCT BOREP DCT ARMUT T703 ARBAX T108 OSTES T700 BADIT BADIT2R |
| Aircraft | A320/M-SDE3FGHIRWY/LB1 |
Departure
| Time | 2026-05-04 17:31 |
|---|---|
| Airport | Düsseldorf Airport (EDDL) |
Arrival
| Time | 2026-05-04 18:34 |
|---|---|
| Airport | Salzburg Airport (LOWS) |
| Time | Latitude | Longitude | Altitude | Speed | Heading |
|---|---|---|---|---|---|
| 2026-05-04 16:56 | 51.28483 | 6.77069 | 129 ft | 0 kts | 322° |
| 2026-05-04 16:57 | 51.28483 | 6.77070 | 129 ft | 0 kts | 322° |
| 2026-05-04 17:11 | 51.28469 | 6.77086 | 125 ft | 3 kts | 322° |
| 2026-05-04 17:11 | 51.28428 | 6.77102 | 129 ft | 4 kts | 38° |
| 2026-05-04 17:12 | 51.28418 | 6.77087 | 124 ft | 0 kts | 53° |
| 2026-05-04 17:19 | 51.28435 | 6.77123 | 125 ft | 1 kts | 52° |
| 2026-05-04 17:19 | 51.28470 | 6.77195 | 126 ft | 9 kts | 52° |
| 2026-05-04 17:20 | 51.28540 | 6.77354 | 126 ft | 7 kts | 57° |
| 2026-05-04 17:20 | 51.28593 | 6.77465 | 126 ft | 7 kts | 52° |
| 2026-05-04 17:20 | 51.28621 | 6.77523 | 128 ft | 6 kts | 52° |
| 2026-05-04 17:21 | 51.28661 | 6.77612 | 128 ft | 4 kts | 65° |
| 2026-05-04 17:21 | 51.28688 | 6.77777 | 128 ft | 8 kts | 52° |
| 2026-05-04 17:22 | 51.28719 | 6.77843 | 127 ft | 7 kts | 52° |
| 2026-05-04 17:22 | 51.28769 | 6.77854 | 126 ft | 10 kts | 332° |
| 2026-05-04 17:23 | 51.28943 | 6.77728 | 126 ft | 12 kts | 47° |
| 2026-05-04 17:23 | 51.29001 | 6.77848 | 128 ft | 13 kts | 52° |
| 2026-05-04 17:23 | 51.29103 | 6.78064 | 132 ft | 12 kts | 52° |
| 2026-05-04 17:24 | 51.29159 | 6.78180 | 136 ft | 14 kts | 53° |
| 2026-05-04 17:24 | 51.29294 | 6.78366 | 143 ft | 6 kts | 36° |
| 2026-05-04 17:25 | 51.29332 | 6.78411 | 146 ft | 6 kts | 36° |
| 2026-05-04 17:25 | 51.29390 | 6.78466 | 149 ft | 3 kts | 15° |
| 2026-05-04 17:26 | 51.29392 | 6.78467 | 149 ft | 0 kts | 12° |
| 2026-05-04 17:29 | 51.29489 | 6.78427 | 150 ft | 7 kts | 290° |
| 2026-05-04 17:29 | 51.29469 | 6.78366 | 149 ft | 0 kts | 233° |
| 2026-05-04 17:30 | 51.29461 | 6.78348 | 149 ft | 7 kts | 233° |
| 2026-05-04 17:31 | 51.28811 | 6.76985 | 128 ft | 140 kts | 233° |
| 2026-05-04 17:31 | 51.26697 | 6.72685 | 1587 ft | 181 kts | 231° |
| 2026-05-04 17:32 | 51.25027 | 6.69047 | 2319 ft | 225 kts | 232° |
| 2026-05-04 17:33 | 51.21350 | 6.63620 | 4472 ft | 260 kts | 186° |
| 2026-05-04 17:33 | 51.19519 | 6.63802 | 5413 ft | 262 kts | 173° |
| 2026-05-04 17:34 | 51.14241 | 6.66072 | 8006 ft | 276 kts | 137° |
| 2026-05-04 17:34 | 51.13243 | 6.68705 | 8898 ft | 286 kts | 109° |
| 2026-05-04 17:35 | 51.13351 | 6.78535 | 9974 ft | 317 kts | 89° |
| 2026-05-04 17:35 | 51.13645 | 6.85690 | 9984 ft | 325 kts | 89° |
| 2026-05-04 17:35 | 51.13789 | 6.89291 | 9978 ft | 327 kts | 88° |
| 2026-05-04 17:36 | 51.13930 | 6.92907 | 9985 ft | 327 kts | 89° |
| 2026-05-04 17:36 | 51.14065 | 6.96524 | 9989 ft | 328 kts | 89° |
| 2026-05-04 17:36 | 51.14197 | 7.00186 | 10567 ft | 335 kts | 89° |
| 2026-05-04 17:36 | 51.14328 | 7.03868 | 11300 ft | 340 kts | 89° |
| 2026-05-04 17:37 | 51.14464 | 7.07701 | 12071 ft | 344 kts | 89° |
| 2026-05-04 17:37 | 51.14595 | 7.11524 | 12823 ft | 348 kts | 89° |
| 2026-05-04 17:37 | 51.14726 | 7.15394 | 13557 ft | 352 kts | 89° |
| 2026-05-04 17:37 | 51.14859 | 7.19302 | 14243 ft | 355 kts | 89° |
| 2026-05-04 17:38 | 51.14994 | 7.23248 | 14850 ft | 359 kts | 89° |
| 2026-05-04 17:38 | 51.15130 | 7.27246 | 15468 ft | 363 kts | 89° |
| 2026-05-04 17:38 | 51.15266 | 7.31282 | 16081 ft | 367 kts | 90° |
| 2026-05-04 17:38 | 51.15401 | 7.35368 | 16690 ft | 372 kts | 90° |
| 2026-05-04 17:39 | 51.14686 | 7.43481 | 17858 ft | 373 kts | 114° |
| 2026-05-04 17:39 | 51.13555 | 7.47125 | 18418 ft | 373 kts | 126° |
| 2026-05-04 17:39 | 51.11952 | 7.50357 | 18920 ft | 372 kts | 137° |
| 2026-05-04 17:40 | 51.10057 | 7.53262 | 19445 ft | 375 kts | 139° |
| 2026-05-04 17:40 | 51.08188 | 7.56107 | 19949 ft | 379 kts | 139° |
| 2026-05-04 17:40 | 51.06249 | 7.59063 | 20443 ft | 383 kts | 139° |
| 2026-05-04 17:40 | 51.04318 | 7.62012 | 20910 ft | 387 kts | 139° |
| 2026-05-04 17:41 | 51.02391 | 7.64948 | 21378 ft | 391 kts | 140° |
| 2026-05-04 17:41 | 51.00387 | 7.67990 | 21869 ft | 395 kts | 140° |
| 2026-05-04 17:41 | 50.98391 | 7.71014 | 22341 ft | 398 kts | 140° |
| 2026-05-04 17:41 | 50.96299 | 7.73906 | 22807 ft | 399 kts | 147° |
| 2026-05-04 17:42 | 50.93968 | 7.76313 | 23261 ft | 400 kts | 152° |
| 2026-05-04 17:42 | 50.91594 | 7.78648 | 23699 ft | 404 kts | 152° |
| 2026-05-04 17:42 | 50.89196 | 7.81003 | 24100 ft | 406 kts | 152° |
| 2026-05-04 17:42 | 50.86790 | 7.83369 | 24510 ft | 408 kts | 152° |
| 2026-05-04 17:43 | 50.84369 | 7.85748 | 24936 ft | 410 kts | 152° |
| 2026-05-04 17:43 | 50.81942 | 7.88128 | 25340 ft | 412 kts | 153° |
| 2026-05-04 17:43 | 50.79500 | 7.90520 | 25747 ft | 414 kts | 153° |
| 2026-05-04 17:43 | 50.77050 | 7.92920 | 26152 ft | 415 kts | 153° |
| 2026-05-04 17:44 | 50.74588 | 7.95331 | 26541 ft | 417 kts | 153° |
| 2026-05-04 17:44 | 50.72118 | 7.97750 | 26913 ft | 419 kts | 153° |
| 2026-05-04 17:44 | 50.69632 | 8.00177 | 27267 ft | 421 kts | 153° |
| 2026-05-04 17:44 | 50.67133 | 8.02610 | 27627 ft | 423 kts | 153° |
| 2026-05-04 17:45 | 50.64622 | 8.05047 | 28014 ft | 425 kts | 154° |
| 2026-05-04 17:45 | 50.62096 | 8.07491 | 28388 ft | 427 kts | 154° |
| 2026-05-04 17:45 | 50.59614 | 8.10117 | 28739 ft | 434 kts | 147° |
| 2026-05-04 17:45 | 50.57289 | 8.13172 | 29134 ft | 436 kts | 145° |
| 2026-05-04 17:46 | 50.55751 | 8.15205 | 29390 ft | 437 kts | 145° |
| 2026-05-04 17:46 | 50.53417 | 8.18279 | 29744 ft | 438 kts | 146° |
| 2026-05-04 17:46 | 50.51070 | 8.21356 | 30066 ft | 440 kts | 146° |
| 2026-05-04 17:46 | 50.48714 | 8.24432 | 30340 ft | 442 kts | 146° |
| 2026-05-04 17:47 | 50.46344 | 8.27516 | 30607 ft | 443 kts | 146° |
| 2026-05-04 17:47 | 50.43966 | 8.30610 | 30873 ft | 445 kts | 146° |
| 2026-05-04 17:47 | 50.41581 | 8.33718 | 31139 ft | 447 kts | 146° |
| 2026-05-04 17:47 | 50.39188 | 8.36836 | 31366 ft | 448 kts | 145° |
| 2026-05-04 17:48 | 50.36791 | 8.39956 | 31692 ft | 448 kts | 145° |
| 2026-05-04 17:48 | 50.34396 | 8.43067 | 32040 ft | 447 kts | 145° |
| 2026-05-04 17:48 | 50.32004 | 8.46166 | 32433 ft | 445 kts | 145° |
| 2026-05-04 17:48 | 50.29620 | 8.49246 | 32842 ft | 443 kts | 145° |
| 2026-05-04 17:49 | 50.27250 | 8.52308 | 33197 ft | 442 kts | 145° |
| 2026-05-04 17:49 | 50.24882 | 8.55365 | 33548 ft | 441 kts | 145° |
| 2026-05-04 17:49 | 50.22515 | 8.58416 | 33903 ft | 440 kts | 145° |
| 2026-05-04 17:49 | 50.20152 | 8.61456 | 34220 ft | 440 kts | 145° |
| 2026-05-04 17:50 | 50.17799 | 8.64484 | 34524 ft | 439 kts | 145° |
| 2026-05-04 17:50 | 50.15433 | 8.67520 | 34810 ft | 439 kts | 145° |
| 2026-05-04 17:50 | 50.13072 | 8.70542 | 34950 ft | 439 kts | 145° |
| 2026-05-04 17:50 | 50.10734 | 8.73626 | 34978 ft | 437 kts | 141° |
| 2026-05-04 17:51 | 50.08752 | 8.77183 | 34970 ft | 442 kts | 129° |
| 2026-05-04 17:51 | 50.07222 | 8.81363 | 34979 ft | 448 kts | 118° |
| 2026-05-04 17:51 | 50.06236 | 8.85997 | 34980 ft | 455 kts | 106° |
| 2026-05-04 17:51 | 50.05863 | 8.90916 | 34982 ft | 462 kts | 94° |
| 2026-05-04 17:52 | 50.06033 | 9.00933 | 34985 ft | 463 kts | 92° |
| 2026-05-04 17:52 | 50.06194 | 9.10948 | 34988 ft | 463 kts | 92° |
| 2026-05-04 17:53 | 50.06194 | 9.20952 | 34968 ft | 460 kts | 99° |
| 2026-05-04 17:53 | 50.05575 | 9.30843 | 34971 ft | 459 kts | 99° |
| 2026-05-04 17:54 | 50.04956 | 9.40719 | 34974 ft | 459 kts | 99° |
| 2026-05-04 17:54 | 50.04328 | 9.50630 | 34976 ft | 460 kts | 99° |
| 2026-05-04 17:55 | 50.03704 | 9.60251 | 34976 ft | 460 kts | 99° |
| 2026-05-04 17:55 | 50.03061 | 9.70059 | 34964 ft | 460 kts | 99° |
| 2026-05-04 17:56 | 50.02409 | 9.79965 | 34963 ft | 461 kts | 99° |
| 2026-05-04 17:56 | 50.01746 | 9.89872 | 34963 ft | 461 kts | 99° |
| 2026-05-04 17:57 | 50.01078 | 9.99778 | 34966 ft | 461 kts | 99° |
| 2026-05-04 17:57 | 50.00398 | 10.09677 | 34953 ft | 460 kts | 99° |
| 2026-05-04 17:58 | 49.99705 | 10.19567 | 34954 ft | 460 kts | 99° |
| 2026-05-04 17:58 | 49.99001 | 10.29452 | 34967 ft | 460 kts | 99° |
| 2026-05-04 17:59 | 49.98295 | 10.39272 | 34968 ft | 460 kts | 99° |
| 2026-05-04 18:00 | 49.97226 | 10.54069 | 34963 ft | 460 kts | 99° |
| 2026-05-04 18:00 | 49.96435 | 10.63917 | 34963 ft | 457 kts | 104° |
| 2026-05-04 18:01 | 49.95128 | 10.73567 | 34962 ft | 456 kts | 104° |
| 2026-05-04 18:01 | 49.93802 | 10.83199 | 34962 ft | 456 kts | 105° |
| 2026-05-04 18:02 | 49.91795 | 10.97635 | 34954 ft | 456 kts | 105° |
| 2026-05-04 18:02 | 49.90457 | 11.07247 | 34959 ft | 456 kts | 105° |
| 2026-05-04 18:03 | 49.89111 | 11.16864 | 34959 ft | 456 kts | 105° |
| 2026-05-04 18:03 | 49.87759 | 11.26459 | 34961 ft | 456 kts | 105° |
| 2026-05-04 18:04 | 49.86399 | 11.36065 | 34969 ft | 456 kts | 105° |
| 2026-05-04 18:05 | 49.84350 | 11.50431 | 34963 ft | 455 kts | 105° |
| 2026-05-04 18:05 | 49.82970 | 11.59978 | 34629 ft | 453 kts | 105° |
| 2026-05-04 18:05 | 49.82281 | 11.64738 | 33973 ft | 453 kts | 105° |
| 2026-05-04 18:06 | 49.80922 | 11.74167 | 32864 ft | 445 kts | 105° |
| 2026-05-04 18:06 | 49.80241 | 11.78830 | 32309 ft | 443 kts | 105° |
| 2026-05-04 18:06 | 49.79561 | 11.83465 | 31994 ft | 441 kts | 105° |
| 2026-05-04 18:07 | 49.78191 | 11.92737 | 31999 ft | 443 kts | 105° |
| 2026-05-04 18:07 | 49.76808 | 12.02012 | 31999 ft | 443 kts | 105° |
| 2026-05-04 18:08 | 49.75415 | 12.11291 | 31994 ft | 443 kts | 105° |
| 2026-05-04 18:08 | 49.74021 | 12.20565 | 31963 ft | 443 kts | 105° |
| 2026-05-04 18:09 | 49.72037 | 12.29490 | 31962 ft | 437 kts | 122° |
| 2026-05-04 18:09 | 49.68331 | 12.36791 | 31970 ft | 430 kts | 141° |
| 2026-05-04 18:10 | 49.63629 | 12.42426 | 31967 ft | 428 kts | 146° |
| 2026-05-04 18:10 | 49.58878 | 12.47948 | 31966 ft | 428 kts | 146° |
| 2026-05-04 18:11 | 49.54123 | 12.53469 | 31966 ft | 428 kts | 146° |
| 2026-05-04 18:11 | 49.51749 | 12.56224 | 31835 ft | 426 kts | 146° |
| 2026-05-04 18:11 | 49.49391 | 12.58960 | 31322 ft | 423 kts | 146° |
| 2026-05-04 18:12 | 49.47052 | 12.61664 | 30796 ft | 419 kts | 146° |
| 2026-05-04 18:12 | 49.44729 | 12.64346 | 30295 ft | 417 kts | 146° |
| 2026-05-04 18:12 | 49.42520 | 12.67217 | 29763 ft | 416 kts | 139° |
| 2026-05-04 18:12 | 49.40433 | 12.70281 | 29192 ft | 413 kts | 139° |
| 2026-05-04 18:13 | 49.38357 | 12.73298 | 28647 ft | 409 kts | 142° |
| 2026-05-04 18:13 | 49.36036 | 12.75715 | 28131 ft | 399 kts | 158° |
| 2026-05-04 18:13 | 49.30768 | 12.77167 | 27088 ft | 381 kts | 188° |
| 2026-05-04 18:14 | 49.28134 | 12.76768 | 26550 ft | 379 kts | 188° |
| 2026-05-04 18:14 | 49.25519 | 12.76355 | 26033 ft | 377 kts | 188° |
| 2026-05-04 18:14 | 49.22921 | 12.75944 | 25549 ft | 374 kts | 188° |
| 2026-05-04 18:15 | 49.17777 | 12.75144 | 24591 ft | 369 kts | 188° |
| 2026-05-04 18:15 | 49.12699 | 12.74353 | 23655 ft | 365 kts | 188° |
| 2026-05-04 18:15 | 49.10178 | 12.73963 | 23144 ft | 363 kts | 188° |
| 2026-05-04 18:16 | 49.07673 | 12.73579 | 22647 ft | 360 kts | 188° |
| 2026-05-04 18:16 | 49.05189 | 12.73197 | 22191 ft | 357 kts | 188° |
| 2026-05-04 18:16 | 49.02723 | 12.72815 | 21749 ft | 354 kts | 188° |
| 2026-05-04 18:17 | 48.97853 | 12.72062 | 20895 ft | 349 kts | 188° |
| 2026-05-04 18:17 | 48.95448 | 12.71695 | 20479 ft | 346 kts | 188° |
| 2026-05-04 18:17 | 48.90695 | 12.70965 | 19653 ft | 340 kts | 188° |
| 2026-05-04 18:18 | 48.88349 | 12.70603 | 19262 ft | 338 kts | 188° |
| 2026-05-04 18:18 | 48.86020 | 12.70244 | 18872 ft | 335 kts | 188° |
| 2026-05-04 18:18 | 48.83740 | 12.69893 | 18489 ft | 332 kts | 188° |
| 2026-05-04 18:18 | 48.81412 | 12.69536 | 17609 ft | 342 kts | 188° |
| 2026-05-04 18:19 | 48.76756 | 12.68835 | 16314 ft | 323 kts | 187° |
| 2026-05-04 18:19 | 48.74528 | 12.68501 | 15928 ft | 320 kts | 187° |
| 2026-05-04 18:19 | 48.72324 | 12.68165 | 15532 ft | 318 kts | 187° |
| 2026-05-04 18:20 | 48.70110 | 12.68082 | 15138 ft | 318 kts | 177° |
| 2026-05-04 18:20 | 48.67919 | 12.68580 | 14730 ft | 318 kts | 173° |
| 2026-05-04 18:20 | 48.65749 | 12.69146 | 14337 ft | 316 kts | 173° |
| 2026-05-04 18:20 | 48.63583 | 12.69709 | 13946 ft | 315 kts | 173° |
| 2026-05-04 18:21 | 48.61426 | 12.70269 | 13530 ft | 314 kts | 173° |
| 2026-05-04 18:21 | 48.59319 | 12.70808 | 13136 ft | 311 kts | 173° |
| 2026-05-04 18:21 | 48.57191 | 12.71298 | 12738 ft | 308 kts | 174° |
| 2026-05-04 18:21 | 48.55078 | 12.71751 | 12351 ft | 305 kts | 174° |
| 2026-05-04 18:22 | 48.52981 | 12.72186 | 11965 ft | 303 kts | 175° |
| 2026-05-04 18:22 | 48.50897 | 12.72615 | 11572 ft | 301 kts | 174° |
| 2026-05-04 18:22 | 48.48830 | 12.73044 | 11227 ft | 298 kts | 174° |
| 2026-05-04 18:22 | 48.46789 | 12.73472 | 10893 ft | 295 kts | 174° |
| 2026-05-04 18:23 | 48.44763 | 12.73899 | 10510 ft | 294 kts | 174° |
| 2026-05-04 18:23 | 48.42739 | 12.74330 | 10151 ft | 292 kts | 174° |
| 2026-05-04 18:23 | 48.40763 | 12.74755 | 10016 ft | 282 kts | 174° |
| 2026-05-04 18:23 | 48.38852 | 12.75291 | 9742 ft | 279 kts | 168° |
| 2026-05-04 18:24 | 48.36972 | 12.75980 | 9364 ft | 277 kts | 168° |
| 2026-05-04 18:24 | 48.35101 | 12.76663 | 8996 ft | 276 kts | 168° |
| 2026-05-04 18:24 | 48.33243 | 12.77341 | 8613 ft | 274 kts | 168° |
| 2026-05-04 18:24 | 48.31387 | 12.78016 | 8224 ft | 274 kts | 168° |
| 2026-05-04 18:25 | 48.29543 | 12.78685 | 7999 ft | 273 kts | 168° |
| 2026-05-04 18:25 | 48.27694 | 12.79353 | 8000 ft | 274 kts | 168° |
| 2026-05-04 18:25 | 48.25836 | 12.80027 | 8002 ft | 275 kts | 168° |
| 2026-05-04 18:25 | 48.23987 | 12.80699 | 7808 ft | 272 kts | 168° |
| 2026-05-04 18:26 | 48.22146 | 12.81365 | 7388 ft | 272 kts | 167° |
| 2026-05-04 18:26 | 48.20309 | 12.82030 | 6988 ft | 271 kts | 167° |
| 2026-05-04 18:26 | 48.18477 | 12.82694 | 6590 ft | 271 kts | 167° |
| 2026-05-04 18:26 | 48.16650 | 12.83355 | 6185 ft | 270 kts | 166° |
| 2026-05-04 18:27 | 48.14825 | 12.84020 | 5763 ft | 269 kts | 166° |
| 2026-05-04 18:27 | 48.13008 | 12.84683 | 5344 ft | 269 kts | 166° |
| 2026-05-04 18:27 | 48.11206 | 12.85334 | 5108 ft | 261 kts | 166° |
| 2026-05-04 18:27 | 48.09481 | 12.85953 | 4982 ft | 250 kts | 166° |
| 2026-05-04 18:28 | 48.07851 | 12.86538 | 4870 ft | 239 kts | 166° |
| 2026-05-04 18:28 | 48.06264 | 12.87104 | 4742 ft | 230 kts | 166° |
| 2026-05-04 18:28 | 48.04737 | 12.87655 | 4616 ft | 222 kts | 165° |
| 2026-05-04 18:28 | 48.03264 | 12.88183 | 4482 ft | 214 kts | 165° |
| 2026-05-04 18:29 | 48.01841 | 12.88695 | 4369 ft | 206 kts | 165° |
| 2026-05-04 18:29 | 48.00923 | 12.89027 | 4295 ft | 196 kts | 165° |
| 2026-05-04 18:29 | 47.99150 | 12.89302 | 4035 ft | 193 kts | 178° |
| 2026-05-04 18:29 | 47.97805 | 12.89340 | 3988 ft | 193 kts | 177° |
| 2026-05-04 18:30 | 47.95632 | 12.90044 | 4016 ft | 192 kts | 155° |
| 2026-05-04 18:30 | 47.94406 | 12.90833 | 4004 ft | 192 kts | 155° |
| 2026-05-04 18:30 | 47.93178 | 12.91613 | 3984 ft | 192 kts | 155° |
| 2026-05-04 18:31 | 47.91952 | 12.92394 | 3815 ft | 191 kts | 156° |
| 2026-05-04 18:31 | 47.90782 | 12.93137 | 3627 ft | 175 kts | 155° |
| 2026-05-04 18:31 | 47.89704 | 12.93820 | 3397 ft | 158 kts | 155° |
| 2026-05-04 18:31 | 47.88716 | 12.94448 | 3197 ft | 151 kts | 155° |
| 2026-05-04 18:32 | 47.87758 | 12.95056 | 3014 ft | 148 kts | 155° |
| 2026-05-04 18:32 | 47.86813 | 12.95656 | 2816 ft | 147 kts | 155° |
| 2026-05-04 18:32 | 47.85872 | 12.96253 | 2625 ft | 147 kts | 155° |
| 2026-05-04 18:32 | 47.84927 | 12.96852 | 2432 ft | 148 kts | 156° |
| 2026-05-04 18:33 | 47.83980 | 12.97452 | 2242 ft | 148 kts | 155° |
| 2026-05-04 18:33 | 47.83028 | 12.98055 | 2043 ft | 148 kts | 156° |
| 2026-05-04 18:33 | 47.82086 | 12.98654 | 1796 ft | 148 kts | 156° |
| 2026-05-04 18:33 | 47.81140 | 12.99255 | 1616 ft | 148 kts | 156° |
| 2026-05-04 18:34 | 47.80196 | 12.99855 | 1446 ft | 147 kts | 158° |
| 2026-05-04 18:34 | 47.79350 | 13.00383 | 1422 ft | 111 kts | 157° |
| 2026-05-04 18:34 | 47.78801 | 13.00730 | 1422 ft | 52 kts | 157° |
| 2026-05-04 18:34 | 47.78633 | 13.00836 | 1420 ft | 15 kts | 157° |
| 2026-05-04 18:35 | 47.78565 | 13.00836 | 1419 ft | 8 kts | 225° |
| 2026-05-04 18:35 | 47.78544 | 13.00769 | 1420 ft | 6 kts | 247° |
| 2026-05-04 18:35 | 47.78530 | 13.00716 | 1420 ft | 5 kts | 252° |
| 2026-05-04 18:35 | 47.78535 | 13.00644 | 1423 ft | 7 kts | 300° |
| 2026-05-04 18:36 | 47.78576 | 13.00606 | 1420 ft | 8 kts | 337° |
| 2026-05-04 18:36 | 47.78624 | 13.00575 | 1420 ft | 7 kts | 337° |
| 2026-05-04 18:36 | 47.78663 | 13.00551 | 1420 ft | 5 kts | 337° |
| 2026-05-04 18:36 | 47.78713 | 13.00519 | 1423 ft | 10 kts | 336° |
| 2026-05-04 18:37 | 47.78778 | 13.00477 | 1423 ft | 10 kts | 337° |
| 2026-05-04 18:37 | 47.78846 | 13.00434 | 1420 ft | 11 kts | 337° |
| 2026-05-04 18:37 | 47.78913 | 13.00392 | 1420 ft | 10 kts | 337° |
| 2026-05-04 18:37 | 47.78951 | 13.00335 | 1420 ft | 7 kts | 283° |
| 2026-05-04 18:38 | 47.78953 | 13.00292 | 1422 ft | 2 kts | 272° |
| 2026-05-04 18:38 | 47.78955 | 13.00242 | 1422 ft | 7 kts | 272° |
| 2026-05-04 18:38 | 47.78957 | 13.00182 | 1422 ft | 5 kts | 278° |
| 2026-05-04 18:38 | 47.78978 | 13.00143 | 1422 ft | 5 kts | 323° |
| 2026-05-04 18:39 | 47.79013 | 13.00109 | 1422 ft | 7 kts | 302° |
| 2026-05-04 18:39 | 47.79023 | 13.00049 | 1422 ft | 5 kts | 282° |
| 2026-05-04 18:39 | 47.79029 | 13.00006 | 1422 ft | 3 kts | 282° |
| 2026-05-04 18:39 | 47.79031 | 12.99989 | 1422 ft | 1 kts | 283° |
| 2026-05-04 18:40 | 47.79032 | 12.99983 | 1422 ft | 0 kts | 283° |